Time;durP1;ratioP1;P1;durP2;ratioP2;P2;SDS_P1;SDS_P2;PMS_P1;PMS_P2;Temp;Humidity;BMP_temperature;BMP_pressure;BME280_temperature;BME280_humidity;BME280_pressure;Samples;Min_cycle;Max_cycle;Signal;HPM_P1;HPM_P2
2023/04/26 00:00:28;;;;;;;;;;;;;;;15.83;64.11;101609.19;1260615;23;614;-74
2023/04/26 00:01:18;;;;;;;;;;;;;;;15.82;63.77;101607.47;1261837;23;753;-76
2023/04/26 00:02:10;;;;;;;;;;;;;;;15.78;64.22;101614.03;1261672;23;652;-74
2023/04/26 00:03:00;;;;;;;;;;;;;;;15.78;64.09;101609.53;1260877;23;616;-75
2023/04/26 00:03:51;;;;;;;;;;;;;;;15.80;64.38;101604.03;1260869;23;637;-75
2023/04/26 00:04:41;;;;;;;;;;;;;;;15.80;63.97;101607.59;1261218;23;638;-75
2023/04/26 00:05:32;;;;;;;;;;;;;;;15.76;64.72;101608.81;1260452;23;665;-75
2023/04/26 00:06:22;;;;;;;;;;;;;;;15.78;64.65;101609.53;1261815;23;630;-73
2023/04/26 00:07:14;;;;;;;;;;;;;;;15.78;64.30;101605.97;1260845;23;677;-73
2023/04/26 00:08:05;;;;;;;;;;;;;;;15.82;64.52;101612.84;1261222;23;649;-73
2023/04/26 00:08:55;;;;;;;;;;;;;;;15.82;64.53;101611.03;1260222;23;635;-73
2023/04/26 00:09:47;;;;;;;;;;;;;;;15.81;64.16;101606.63;1261314;23;634;-73
2023/04/26 00:10:39;;;;;;;;;;;;;;;15.82;64.63;101600.28;1259721;23;618;-74
2023/04/26 00:11:30;;;;;;;;;;;;;;;15.84;64.55;101605.53;1260439;23;666;-74
2023/04/26 00:12:20;;;;;;;;;;;;;;;15.86;64.23;101614.34;1260313;23;598;-73
2023/04/26 00:13:11;;;;;;;;;;;;;;;15.83;64.51;101609.19;1260439;23;682;-73
2023/04/26 00:14:01;;;;;;;;;;;;;;;15.82;64.51;101612.84;1261786;23;679;-73
2023/04/26 00:14:52;;;;;;;;;;;;;;;15.82;64.19;101613.72;1260966;23;681;-73
2023/04/26 00:15:42;;;;;;;;;;;;;;;15.83;64.49;101606.50;1261317;23;622;-73
2023/04/26 00:16:33;;;;;;;;;;;;;;;15.83;64.39;101609.19;1260322;23;674;-72
2023/04/26 00:17:23;;;;;;;;;;;;;;;15.79;64.40;101619.31;1261230;23;614;-74
2023/04/26 00:18:14;;;;;;;;;;;;;;;15.80;63.76;101604.03;1260504;23;670;-74
2023/04/26 00:19:04;;;;;;;;;;;;;;;15.80;64.19;101604.03;1260209;23;670;-72
2023/04/26 00:19:56;;;;;;;;;;;;;;;15.77;64.22;101609.63;1260421;23;701;-73
2023/04/26 00:20:46;;;;;;;;;;;;;;;15.78;64.33;101614.03;1260421;23;607;-73
2023/04/26 00:21:37;;;;;;;;;;;;;;;15.70;64.56;101609.25;1260256;23;1137;-73
2023/04/26 00:22:27;;;;;;;;;;;;;;;15.72;64.61;101611.84;1260402;23;638;-75
2023/04/26 00:23:18;;;;;;;;;;;;;;;15.76;64.35;101606.13;1260383;23;653;-73
2023/04/26 00:24:08;;;;;;;;;;;;;;;15.78;63.97;101605.97;1260375;23;614;-73
2023/04/26 00:24:59;;;;;;;;;;;;;;;15.77;64.22;101610.50;1259841;23;630;-73
2023/04/26 00:25:49;;;;;;;;;;;;;;;15.78;64.51;101614.03;1260398;23;657;-73
2023/04/26 00:26:40;;;;;;;;;;;;;;;15.71;64.24;101610.97;1260535;23;677;-73
2023/04/26 00:27:30;;;;;;;;;;;;;;;15.69;63.98;101607.53;1260389;23;606;-73
2023/04/26 00:28:21;;;;;;;;;;;;;;;15.70;64.33;101608.41;1266890;23;653;-73
2023/04/26 00:29:11;;;;;;;;;;;;;;;15.72;63.95;101618.06;1265996;23;650;-73
2023/04/26 00:30:02;;;;;;;;;;;;;;;15.71;63.92;101597.53;1260550;23;677;-73
2023/04/26 00:30:52;;;;;;;;;;;;;;;15.70;64.29;101603.03;1260418;23;600;-74
2023/04/26 00:31:43;;;;;;;;;;;;;;;15.72;64.06;101598.41;1260442;23;661;-73
2023/04/26 00:32:34;;;;;;;;;;;;;;;15.70;64.09;101603.03;1260202;23;678;-73
2023/04/26 00:33:25;;;;;;;;;;;;;;;15.66;64.19;101598.84;1260273;23;662;-73
2023/04/26 00:34:16;;;;;;;;;;;;;;;15.66;64.15;101597.00;1261112;23;673;-73
2023/04/26 00:35:06;;;;;;;;;;;;;;;15.70;63.72;101592.28;1260509;23;634;-74
2023/04/26 00:35:56;;;;;;;;;;;;;;;15.67;64.01;101595.19;1266837;23;622;-74
2023/04/26 00:36:47;;;;;;;;;;;;;;;15.65;63.97;101597.97;1266291;23;645;-74
2023/04/26 00:37:37;;;;;;;;;;;;;;;15.68;63.95;101599.59;1260535;23;586;-74
2023/04/26 00:38:28;;;;;;;;;;;;;;;15.67;63.86;101593.34;1260443;23;642;-74
2023/04/26 00:39:18;;;;;;;;;;;;;;;15.67;64.10;101596.03;1259868;23;1904;-74
2023/04/26 00:40:09;;;;;;;;;;;;;;;15.66;63.54;101596.16;1260435;23;665;-73
2023/04/26 00:40:59;;;;;;;;;;;;;;;15.63;63.92;101598.09;1260329;23;623;-73
2023/04/26 00:41:50;;;;;;;;;;;;;;;15.61;63.78;101597.34;1260618;23;629;-74
2023/04/26 00:42:40;;;;;;;;;;;;;;;15.62;64.15;101598.22;1266908;23;575;-74
2023/04/26 00:43:31;;;;;;;;;;;;;;;15.59;64.11;101601.97;1266166;23;689;-74
2023/04/26 00:44:21;;;;;;;;;;;;;;;15.62;63.92;101596.38;1260293;23;732;-74
2023/04/26 00:45:12;;;;;;;;;;;;;;;15.66;63.79;101594.31;1260327;23;618;-74
2023/04/26 00:46:02;;;;;;;;;;;;;;;15.63;63.89;101592.72;1260496;23;578;-73
2023/04/26 00:46:52;;;;;;;;;;;;;;;15.62;63.87;101599.06;1260391;23;674;-74
2023/04/26 00:47:43;;;;;;;;;;;;;;;15.62;63.99;101599.06;1260521;23;779;-73
2023/04/26 00:48:33;;;;;;;;;;;;;;;15.65;63.88;101599.81;1266855;23;642;-74
2023/04/26 00:49:25;;;;;;;;;;;;;;;15.65;63.82;101599.81;1266060;23;666;-73
2023/04/26 00:50:15;;;;;;;;;;;;;;;15.60;64.12;101601.00;1260278;23;615;-74
2023/04/26 00:51:06;;;;;;;;;;;;;;;15.60;63.88;101598.31;1260486;23;665;-74
2023/04/26 00:51:56;;;;;;;;;;;;;;;15.61;63.62;101600.03;1260454;23;630;-74
2023/04/26 00:52:46;;;;;;;;;;;;;;;15.63;63.55;101603.47;1260423;23;646;-74
2023/04/26 00:53:37;;;;;;;;;;;;;;;15.60;64.14;101602.84;1260454;23;644;-75
2023/04/26 00:54:27;;;;;;;;;;;;;;;15.58;64.32;101594.91;1260383;23;660;-73
2023/04/26 00:55:18;;;;;;;;;;;;;;;15.60;63.89;101594.78;1266869;23;612;-74
2023/04/26 00:56:08;;;;;;;;;;;;;;;15.59;64.15;101599.28;1266004;23;594;-74
2023/04/26 00:56:59;;;;;;;;;;;;;;;15.58;64.00;101600.28;1260532;23;669;-74
2023/04/26 00:57:49;;;;;;;;;;;;;;;15.61;63.87;101599.19;1260381;23;660;-74
2023/04/26 00:58:40;;;;;;;;;;;;;;;15.57;64.09;101598.56;1260548;23;649;-74
2023/04/26 00:59:31;;;;;;;;;;;;;;;15.58;63.97;101604.81;1260126;23;1914;-74
2023/04/26 01:00:21;;;;;;;;;;;;;;;15.57;63.99;101603.09;1260283;23;620;-74
2023/04/26 01:01:12;;;;;;;;;;;;;;;15.58;64.24;101605.66;1260389;23;700;-73
2023/04/26 01:02:02;;;;;;;;;;;;;;;15.59;64.26;101604.66;1260449;23;665;-73
2023/04/26 01:02:53;;;;;;;;;;;;;;;15.61;64.14;101604.56;1266805;23;738;-73
2023/04/26 01:03:45;;;;;;;;;;;;;;;15.62;64.22;101604.44;1265930;23;622;-74
2023/04/26 01:04:36;;;;;;;;;;;;;;;15.58;64.24;101602.97;1260396;23;669;-73
2023/04/26 01:05:26;;;;;;;;;;;;;;;15.57;64.35;101595.03;1260283;23;617;-74
2023/04/26 01:06:16;;;;;;;;;;;;;;;15.57;64.42;101600.41;1266792;23;629;-74
2023/04/26 01:07:07;;;;;;;;;;;;;;;15.54;63.98;101606.81;1266206;23;693;-73
2023/04/26 01:07:58;;;;;;;;;;;;;;;15.54;64.21;101598.75;1260446;23;623;-73
2023/04/26 01:08:49;;;;;;;;;;;;;;;15.54;64.23;101597.91;1260171;23;702;-74
2023/04/26 01:09:39;;;;;;;;;;;;;;;15.48;64.14;101604.56;1260348;23;626;-74
2023/04/26 01:10:30;;;;;;;;;;;;;;;15.47;64.22;101597.47;1266901;23;696;-73
2023/04/26 01:11:21;;;;;;;;;;;;;;;15.43;64.12;101603.19;1265828;23;638;-73
2023/04/26 01:12:11;;;;;;;;;;;;;;;15.39;64.35;101590.97;1260242;23;661;-73
2023/04/26 01:13:02;;;;;;;;;;;;;;;15.41;64.25;101597.91;1260415;23;622;-74
2023/04/26 01:13:52;;;;;;;;;;;;;;;15.39;64.33;101602.56;1261206;23;654;-75
2023/04/26 01:14:43;;;;;;;;;;;;;;;15.40;64.02;101601.59;1260520;23;645;-74
2023/04/26 01:15:34;;;;;;;;;;;;;;;15.38;64.20;101598.16;1260332;23;568;-74
2023/04/26 01:16:25;;;;;;;;;;;;;;;15.37;64.20;101606.34;1260431;23;737;-74
2023/04/26 01:17:15;;;;;;;;;;;;;;;15.33;64.12;101608.38;1261187;23;693;-74
2023/04/26 01:18:06;;;;;;;;;;;;;;;15.35;64.34;101605.59;1260484;23;673;-74
2023/04/26 01:18:56;;;;;;;;;;;;;;;15.37;64.47;101600.97;1260372;23;658;-74
2023/04/26 01:19:47;;;;;;;;;;;;;;;15.36;64.22;101605.47;1266849;23;1926;-73
2023/04/26 01:20:37;;;;;;;;;;;;;;;15.36;64.32;101605.47;1265910;23;657;-73
2023/04/26 01:21:28;;;;;;;;;;;;;;;15.36;64.20;101594.75;1260233;23;1055;-73
2023/04/26 01:22:18;;;;;;;;;;;;;;;15.37;64.14;101601.81;1260195;23;661;-74
2023/04/26 01:23:09;;;;;;;;;;;;;;;15.33;64.21;101603.00;1259651;23;619;-74
2023/04/26 01:24:00;;;;;;;;;;;;;;;15.33;64.49;101608.38;1260142;23;666;-73
2023/04/26 01:24:50;;;;;;;;;;;;;;;15.36;64.46;101599.25;1260286;23;673;-73
2023/04/26 01:25:41;;;;;;;;;;;;;;;15.33;64.81;101603.00;1260196;23;669;-74
2023/04/26 01:26:31;;;;;;;;;;;;;;;15.35;64.33;101606.44;1261249;23;676;-73
2023/04/26 01:27:21;;;;;;;;;;;;;;;15.36;64.54;101610.00;1261094;23;654;-74
2023/04/26 01:28:12;;;;;;;;;;;;;;;15.35;64.32;101606.44;1260368;23;614;-74
2023/04/26 01:29:02;;;;;;;;;;;;;;;15.31;64.52;101612.16;1260017;23;618;-74
2023/04/26 01:29:53;;;;;;;;;;;;;;;15.27;64.45;101604.31;1260421;23;622;-74
2023/04/26 01:30:43;;;;;;;;;;;;;;;15.30;64.63;101600.53;1260382;23;624;-74
2023/04/26 01:31:33;;;;;;;;;;;;;;;15.36;64.32;101610.84;1260321;23;635;-74
2023/04/26 01:32:24;;;;;;;;;;;;;;;15.37;64.45;101609.88;1260420;23;693;-73
2023/04/26 01:33:15;;;;;;;;;;;;;;;15.36;64.53;101607.31;1260374;23;701;-74
2023/04/26 01:34:05;;;;;;;;;;;;;;;15.37;64.24;101609.88;1260099;23;685;-74
2023/04/26 01:34:56;;;;;;;;;;;;;;;15.37;64.06;101604.50;1260282;23;611;-74
2023/04/26 01:35:46;;;;;;;;;;;;;;;15.34;64.24;101607.41;1260436;23;678;-74
2023/04/26 01:36:36;;;;;;;;;;;;;;;15.35;64.32;101605.59;1260325;23;631;-74
2023/04/26 01:37:27;;;;;;;;;;;;;;;15.33;64.24;101610.22;1259806;23;666;-74
2023/04/26 01:38:18;;;;;;;;;;;;;;;15.34;64.70;101611.94;1260202;23;640;-74
2023/04/26 01:39:09;;;;;;;;;;;;;;;15.36;64.29;101615.38;1261242;23;666;-74
2023/04/26 01:40:00;;;;;;;;;;;;;;;15.33;64.38;101611.06;1260276;23;581;-74
2023/04/26 01:40:50;;;;;;;;;;;;;;;15.26;64.80;101607.09;1260425;23;689;-74
2023/04/26 01:41:41;;;;;;;;;;;;;;;15.23;64.65;101610.84;1260193;23;627;-75
2023/04/26 01:42:31;;;;;;;;;;;;;;;15.29;64.66;101615.78;1260321;23;654;-75
2023/04/26 01:43:22;;;;;;;;;;;;;;;15.28;64.71;101607.84;1260237;23;622;-74
2023/04/26 01:44:12;;;;;;;;;;;;;;;15.28;64.37;101611.41;1260250;23;634;-74
2023/04/26 01:45:03;;;;;;;;;;;;;;;15.27;64.04;101612.34;1260691;23;646;-74
2023/04/26 01:45:53;;;;;;;;;;;;;;;15.23;64.58;101604.63;1261368;23;615;-74
2023/04/26 01:46:44;;;;;;;;;;;;;;;15.22;64.59;101609.19;1260670;23;651;-74
2023/04/26 01:47:34;;;;;;;;;;;;;;;15.19;64.57;101601.34;1260709;23;643;-74
2023/04/26 01:48:25;;;;;;;;;;;;;;;15.23;64.59;101600.13;1260636;23;607;-74
2023/04/26 01:49:15;;;;;;;;;;;;;;;15.23;64.14;101605.50;1260408;23;665;-74
2023/04/26 01:50:06;;;;;;;;;;;;;;;15.23;64.57;101607.31;1260623;23;618;-74
2023/04/26 01:50:56;;;;;;;;;;;;;;;15.25;64.54;101602.69;1260635;23;642;-74
2023/04/26 01:51:46;;;;;;;;;;;;;;;15.26;64.15;101601.72;1260701;23;654;-74
2023/04/26 01:52:37;;;;;;;;;;;;;;;15.23;64.25;101596.56;1260576;23;623;-75
2023/04/26 01:53:27;;;;;;;;;;;;;;;15.23;64.27;101593.88;1260646;23;638;-74
2023/04/26 01:54:18;;;;;;;;;;;;;;;15.26;64.13;101596.34;1260619;23;655;-74
2023/04/26 01:55:08;;;;;;;;;;;;;;;15.21;64.83;101590.47;1260397;23;592;-75
2023/04/26 01:55:58;;;;;;;;;;;;;;;15.20;64.69;101596.81;1260568;23;638;-75
2023/04/26 01:56:49;;;;;;;;;;;;;;;15.21;64.45;101590.47;1260741;23;650;-74
2023/04/26 01:57:39;;;;;;;;;;;;;;;15.21;64.58;101595.84;1260641;23;662;-74
2023/04/26 01:58:30;;;;;;;;;;;;;;;15.20;64.14;101594.13;1260649;23;657;-75
2023/04/26 01:59:20;;;;;;;;;;;;;;;15.17;64.56;101594.34;1260491;23;595;-74
2023/04/26 02:00:11;;;;;;;;;;;;;;;15.19;64.17;101595.97;1260627;23;630;-74
2023/04/26 02:01:02;;;;;;;;;;;;;;;15.19;64.26;101600.47;1260652;23;662;-74
2023/04/26 02:01:52;;;;;;;;;;;;;;;15.19;64.38;101597.78;1260662;23;697;-75
2023/04/26 02:02:43;;;;;;;;;;;;;;;15.17;64.88;101594.34;1261458;23;630;-75
2023/04/26 02:03:33;;;;;;;;;;;;;;;15.17;64.52;101589.84;1260523;23;654;-75
2023/04/26 02:04:23;;;;;;;;;;;;;;;15.20;64.21;101596.81;1260536;23;654;-75
2023/04/26 02:05:14;;;;;;;;;;;;;;;15.15;64.25;101609.72;1260623;23;682;-75
2023/04/26 02:06:04;;;;;;;;;;;;;;;15.17;64.55;101599.72;1260478;23;626;-75
2023/04/26 02:06:56;;;;;;;;;;;;;;;15.17;64.43;101599.72;1260753;23;693;-75
2023/04/26 02:07:46;;;;;;;;;;;;;;;15.15;64.14;101596.28;1260629;23;673;-75
2023/04/26 02:08:36;;;;;;;;;;;;;;;15.13;64.20;101601.75;1260479;23;733;-75
2023/04/26 02:09:27;;;;;;;;;;;;;;;15.14;64.21;101599.94;1260722;23;623;-75
2023/04/26 02:10:17;;;;;;;;;;;;;;;15.15;64.14;101598.97;1261309;23;614;-75
2023/04/26 02:11:08;;;;;;;;;;;;;;;15.15;64.46;101604.34;1260599;23;654;-75
2023/04/26 02:11:59;;;;;;;;;;;;;;;15.18;64.36;101606.81;1261307;23;685;-75
2023/04/26 02:12:49;;;;;;;;;;;;;;;15.16;64.22;101608.75;1260515;23;716;-75
2023/04/26 02:13:40;;;;;;;;;;;;;;;15.15;64.01;101607.88;1260552;23;701;-75
2023/04/26 02:14:30;;;;;;;;;;;;;;;15.14;64.09;101608.84;1261977;23;689;-75
2023/04/26 02:15:21;;;;;;;;;;;;;;;15.13;63.99;101601.75;1260952;23;642;-76
2023/04/26 02:16:11;;;;;;;;;;;;;;;15.11;64.41;101606.38;1261312;23;634;-76
2023/04/26 02:17:01;;;;;;;;;;;;;;;15.12;64.28;101607.25;1260452;23;709;-75
2023/04/26 02:17:54;;;;;;;;;;;;;;;15.14;64.06;101600.78;1260595;23;666;-75
2023/04/26 02:18:44;;;;;;;;;;;;;;;15.11;64.19;101606.38;1260560;23;650;-75
2023/04/26 02:19:35;;;;;;;;;;;;;;;15.10;64.42;101604.66;1260402;23;1882;-76
2023/04/26 02:20:25;;;;;;;;;;;;;;;15.09;64.18;101602.94;1260450;23;634;-76
2023/04/26 02:21:17;;;;;;;;;;;;;;;15.05;64.05;101608.66;1259790;23;1325;-75
2023/04/26 02:22:07;;;;;;;;;;;;;;;15.05;64.67;101604.13;1260606;23;650;-75
2023/04/26 02:22:58;;;;;;;;;;;;;;;15.02;64.40;101606.19;1260521;23;639;-75
2023/04/26 02:23:48;;;;;;;;;;;;;;;15.03;64.34;101607.91;1260694;23;639;-76
2023/04/26 02:24:38;;;;;;;;;;;;;;;15.04;64.38;101610.50;1261810;23;681;-75
2023/04/26 02:25:29;;;;;;;;;;;;;;;15.03;64.45;101614.16;1261109;23;713;-76
2023/04/26 02:26:19;;;;;;;;;;;;;;;15.05;64.25;101606.00;1261425;23;614;-75
2023/04/26 02:27:10;;;;;;;;;;;;;;;15.03;64.00;101602.53;1260463;23;666;-75
2023/04/26 02:28:00;;;;;;;;;;;;;;;15.04;63.94;101602.44;1260765;23;649;-76
2023/04/26 02:28:51;;;;;;;;;;;;;;;15.04;64.52;101605.13;1260529;23;611;-76
2023/04/26 02:29:41;;;;;;;;;;;;;;;15.05;64.14;101604.13;1260583;23;638;-76
2023/04/26 02:30:31;;;;;;;;;;;;;;;15.04;63.72;101610.50;1260448;23;666;-76
2023/04/26 02:31:22;;;;;;;;;;;;;;;15.04;63.81;101601.59;1261709;23;633;-76
2023/04/26 02:32:13;;;;;;;;;;;;;;;15.04;64.22;101610.50;1260938;23;658;-76
2023/04/26 02:33:03;;;;;;;;;;;;;;;15.04;63.85;101609.63;1261323;23;670;-75
2023/04/26 02:33:55;;;;;;;;;;;;;;;15.04;64.11;101609.63;1261355;23;674;-76
2023/04/26 02:34:45;;;;;;;;;;;;;;;15.02;64.30;101607.06;1260697;23;646;-77
2023/04/26 02:35:36;;;;;;;;;;;;;;;14.97;64.00;101608.34;1260033;23;670;-78
2023/04/26 02:36:27;;;;;;;;;;;;;;;14.97;63.95;101613.72;1260407;23;670;-77
2023/04/26 02:37:18;;;;;;;;;;;;;;;15.03;64.20;101618.66;1260441;23;662;-77
2023/04/26 02:38:08;;;;;;;;;;;;;;;15.04;63.66;101607.81;1260420;23;632;-77
2023/04/26 02:38:59;;;;;;;;;;;;;;;15.01;63.90;101613.38;1260542;23;634;-77
2023/04/26 02:39:50;;;;;;;;;;;;;;;15.01;63.99;101607.16;1260513;23;1893;-77
2023/04/26 02:40:40;;;;;;;;;;;;;;;14.96;64.33;101603.94;1260424;23;870;-76
2023/04/26 02:41:31;;;;;;;;;;;;;;;14.96;64.64;101610.16;1260675;23;614;-76
2023/04/26 02:42:22;;;;;;;;;;;;;;;14.98;64.22;101610.06;1260321;23;774;-76
2023/04/26 02:43:12;;;;;;;;;;;;;;;14.95;64.63;101605.75;1260673;23;619;-75
2023/04/26 02:44:02;;;;;;;;;;;;;;;14.92;64.48;101606.84;1260567;23;646;-75
2023/04/26 02:44:53;;;;;;;;;;;;;;;14.92;64.77;101601.47;1260644;23;630;-75
2023/04/26 02:45:43;;;;;;;;;;;;;;;14.93;64.53;101610.38;1260498;23;761;-75
2023/04/26 02:46:34;;;;;;;;;;;;;;;14.97;64.35;101597.59;1260452;23;637;-74
2023/04/26 02:47:25;;;;;;;;;;;;;;;15.01;64.26;101604.47;1260394;23;650;-74
2023/04/26 02:48:15;;;;;;;;;;;;;;;15.02;63.94;101606.19;1260403;23;605;-75
2023/04/26 02:49:06;;;;;;;;;;;;;;;15.01;64.07;101604.47;1261332;23;622;-75
2023/04/26 02:49:56;;;;;;;;;;;;;;;15.04;64.13;101596.22;1260076;23;662;-75
2023/04/26 02:50:46;;;;;;;;;;;;;;;15.06;64.45;101602.31;1260479;23;620;-75
2023/04/26 02:51:37;;;;;;;;;;;;;;;15.05;64.34;101601.44;1260538;23;661;-75
2023/04/26 02:52:27;;;;;;;;;;;;;;;15.04;64.17;101598.91;1260513;23;701;-75
2023/04/26 02:53:18;;;;;;;;;;;;;;;15.01;64.47;101607.16;1260226;23;618;-75
2023/04/26 02:54:08;;;;;;;;;;;;;;;15.01;63.88;101601.78;1260617;23;650;-75
2023/04/26 02:54:59;;;;;;;;;;;;;;;14.99;64.44;101596.53;1260331;23;646;-75
2023/04/26 02:55:50;;;;;;;;;;;;;;;14.97;64.20;101601.16;1260406;23;649;-76
2023/04/26 02:56:41;;;;;;;;;;;;;;;14.95;63.87;101603.09;1261016;23;642;-77
2023/04/26 02:57:31;;;;;;;;;;;;;;;14.93;64.33;101600.50;1261648;23;684;-74
2023/04/26 02:58:21;;;;;;;;;;;;;;;14.94;63.83;101596.84;1261011;23;713;-74
2023/04/26 02:59:12;;;;;;;;;;;;;;;14.98;64.26;101600.19;1261286;23;649;-75
2023/04/26 03:00:04;;;;;;;;;;;;;;;14.98;64.32;101597.50;1260387;23;564;-76
2023/04/26 03:00:56;;;;;;;;;;;;;;;14.99;64.11;101593.84;1260434;23;639;-76
2023/04/26 03:01:46;;;;;;;;;;;;;;;14.98;64.15;101593.97;1260503;23;638;-74
2023/04/26 03:02:36;;;;;;;;;;;;;;;14.92;63.94;101593.41;1260337;23;725;-74
2023/04/26 03:03:27;;;;;;;;;;;;;;;14.94;63.80;101596.84;1260546;23;693;-74
2023/04/26 03:04:18;;;;;;;;;;;;;;;14.95;64.03;101592.34;1260413;23;830;-74
2023/04/26 03:05:09;;;;;;;;;;;;;;;14.97;64.28;101593.09;1261990;23;760;-75
2023/04/26 03:05:59;;;;;;;;;;;;;;;14.94;64.15;101590.63;1260856;23;646;-75
2023/04/26 03:06:50;;;;;;;;;;;;;;;14.95;64.04;101592.34;1260996;23;625;-75
2023/04/26 03:07:40;;;;;;;;;;;;;;;14.88;64.01;101591.91;1253180;23;666;-75
2023/04/26 03:08:33;;;;;;;;;;;;;;;14.89;63.83;101590.94;1254193;23;686;-76
2023/04/26 03:09:24;;;;;;;;;;;;;;;14.87;63.98;101592.88;1260214;23;649;-76
2023/04/26 03:10:14;;;;;;;;;;;;;;;14.88;63.96;101585.69;1260538;23;673;-76
2023/04/26 03:11:05;;;;;;;;;;;;;;;14.91;63.91;101586.34;1261177;23;646;-76
2023/04/26 03:11:56;;;;;;;;;;;;;;;14.91;63.99;101586.34;1260335;23;614;-76
2023/04/26 03:12:46;;;;;;;;;;;;;;;14.89;63.67;101585.56;1260574;23;666;-76
2023/04/26 03:13:37;;;;;;;;;;;;;;;14.89;63.76;101585.56;1260546;23;677;-77
2023/04/26 03:14:27;;;;;;;;;;;;;;;14.89;64.17;101590.94;1261348;23;665;-76
2023/04/26 03:15:17;;;;;;;;;;;;;;;14.90;64.06;101586.44;1260549;23;624;-76
2023/04/26 03:16:08;;;;;;;;;;;;;;;14.90;63.42;101586.44;1260437;23;670;-75
2023/04/26 03:16:58;;;;;;;;;;;;;;;14.88;63.67;101591.06;1260443;23;630;-76
2023/04/26 03:17:49;;;;;;;;;;;;;;;14.86;63.80;101593.88;1260386;23;662;-77
2023/04/26 03:18:40;;;;;;;;;;;;;;;14.87;63.51;101583.97;1260423;23;730;-76
2023/04/26 03:19:30;;;;;;;;;;;;;;;14.84;64.00;101584.22;1260490;23;1881;-76
2023/04/26 03:20:21;;;;;;;;;;;;;;;14.83;63.83;101583.34;1260410;23;626;-76
2023/04/26 03:21:11;;;;;;;;;;;;;;;14.82;63.63;101586.16;1260412;23;1186;-75
2023/04/26 03:22:02;;;;;;;;;;;;;;;14.83;63.61;101583.34;1261767;23;653;-75
2023/04/26 03:22:52;;;;;;;;;;;;;;;14.82;64.08;101589.69;1260839;23;688;-75
2023/04/26 03:23:42;;;;;;;;;;;;;;;14.84;63.68;101584.22;1261301;23;634;-75
2023/04/26 03:24:33;;;;;;;;;;;;;;;14.84;63.76;101587.75;1260466;23;610;-76
2023/04/26 03:25:23;;;;;;;;;;;;;;;14.78;64.18;101587.31;1260213;23;760;-76
2023/04/26 03:26:14;;;;;;;;;;;;;;;14.79;63.78;101589.03;1260323;23;627;-77
2023/04/26 03:27:04;;;;;;;;;;;;;;;14.79;63.90;101589.03;1260458;23;634;-76
2023/04/26 03:27:55;;;;;;;;;;;;;;;14.80;63.48;101591.63;1260542;23;658;-76
2023/04/26 03:28:45;;;;;;;;;;;;;;;14.80;63.72;101580.88;1260313;23;1027;-76
2023/04/26 03:29:36;;;;;;;;;;;;;;;14.77;63.43;101586.47;1260517;23;643;-76
2023/04/26 03:30:26;;;;;;;;;;;;;;;14.77;63.80;101589.16;1260279;23;717;-76
2023/04/26 03:31:18;;;;;;;;;;;;;;;14.81;63.99;101581.75;1260465;23;622;-76
2023/04/26 03:32:08;;;;;;;;;;;;;;;14.81;63.41;101587.09;1261672;23;692;-75
2023/04/26 03:32:59;;;;;;;;;;;;;;;14.80;63.78;101586.25;1260798;23;665;-76
2023/04/26 03:33:50;;;;;;;;;;;;;;;14.83;63.74;101590.53;1260937;23;612;-75
2023/04/26 03:34:40;;;;;;;;;;;;;;;14.80;63.38;101586.25;1261229;23;626;-75
2023/04/26 03:35:31;;;;;;;;;;;;;;;14.81;63.73;101587.09;1260411;23;673;-75
2023/04/26 03:36:21;;;;;;;;;;;;;;;14.80;63.15;101583.56;1260393;23;666;-76
2023/04/26 03:37:12;;;;;;;;;;;;;;;14.76;63.58;101579.38;1261175;23;627;-76
2023/04/26 03:38:02;;;;;;;;;;;;;;;14.78;63.68;101580.13;1260390;23;598;-76
2023/04/26 03:38:53;;;;;;;;;;;;;;;14.77;63.50;101589.16;1260407;23;631;-75
2023/04/26 03:39:43;;;;;;;;;;;;;;;14.76;63.25;101584.75;1260366;23;1901;-75
2023/04/26 03:40:33;;;;;;;;;;;;;;;14.71;63.34;101583.34;1260348;23;638;-75
2023/04/26 03:41:24;;;;;;;;;;;;;;;14.73;63.47;101582.28;1260505;23;627;-76
2023/04/26 03:42:14;;;;;;;;;;;;;;;14.75;63.37;101576.78;1260402;23;689;-76
2023/04/26 03:43:05;;;;;;;;;;;;;;;14.75;63.16;101582.16;1260266;23;619;-76
2023/04/26 03:43:55;;;;;;;;;;;;;;;14.72;63.43;101582.38;1260379;23;662;-76
2023/04/26 03:44:46;;;;;;;;;;;;;;;14.74;63.20;101583.13;1261784;23;708;-76
2023/04/26 03:45:36;;;;;;;;;;;;;;;14.73;63.29;101581.41;1260909;23;637;-75
2023/04/26 03:46:27;;;;;;;;;;;;;;;14.73;63.27;101579.59;1261207;23;646;-76
2023/04/26 03:47:17;;;;;;;;;;;;;;;14.73;63.58;101584.09;1261651;23;685;-76
2023/04/26 03:48:07;;;;;;;;;;;;;;;14.74;63.75;101583.13;1260199;23;697;-75
2023/04/26 03:48:58;;;;;;;;;;;;;;;14.72;63.14;101577.88;1261122;23;630;-75
2023/04/26 03:49:48;;;;;;;;;;;;;;;14.69;63.10;101585.31;1260383;23;666;-74
2023/04/26 03:50:39;;;;;;;;;;;;;;;14.70;63.56;101579.78;1261119;23;666;-74
2023/04/26 03:51:30;;;;;;;;;;;;;;;14.67;63.54;101580.03;1260517;23;678;-74
2023/04/26 03:52:20;;;;;;;;;;;;;;;14.68;63.61;101581.75;1261101;23;697;-74
2023/04/26 03:53:11;;;;;;;;;;;;;;;14.67;63.70;101584.53;1260397;23;573;-75
2023/04/26 03:54:01;;;;;;;;;;;;;;;14.68;63.28;101584.44;1260458;23;818;-74
2023/04/26 03:54:51;;;;;;;;;;;;;;;14.70;63.55;101592.34;1260345;23;669;-74
2023/04/26 03:55:42;;;;;;;;;;;;;;;14.61;63.79;101579.59;1260461;23;681;-74
2023/04/26 03:56:32;;;;;;;;;;;;;;;14.61;63.89;101588.50;1260450;23;697;-74
2023/04/26 03:57:23;;;;;;;;;;;;;;;14.63;63.51;101583.91;1260417;23;623;-74
2023/04/26 03:58:13;;;;;;;;;;;;;;;14.66;63.89;101582.81;1260418;23;658;-74
2023/04/26 03:59:04;;;;;;;;;;;;;;;14.68;63.31;101583.59;1260215;23;631;-75
2023/04/26 03:59:55;;;;;;;;;;;;;;;14.60;63.40;101584.09;1260287;23;1972;-75
2023/04/26 04:00:45;;;;;;;;;;;;;;;14.59;64.18;101585.06;1260586;23;638;-75
2023/04/26 04:01:36;;;;;;;;;;;;;;;14.59;64.14;101587.75;1260435;23;662;-75
2023/04/26 04:02:26;;;;;;;;;;;;;;;14.59;63.93;101587.75;1259922;23;619;-75
2023/04/26 04:03:16;;;;;;;;;;;;;;;14.60;64.02;101584.09;1260283;23;797;-74
2023/04/26 04:04:07;;;;;;;;;;;;;;;14.58;63.92;101589.56;1260435;23;610;-74
2023/04/26 04:04:57;;;;;;;;;;;;;;;14.58;63.80;101586.91;1260600;23;662;-75
2023/04/26 04:05:48;;;;;;;;;;;;;;;14.58;63.61;101580.66;1260445;23;650;-75
2023/04/26 04:06:38;;;;;;;;;;;;;;;14.54;64.04;101581.84;1260353;23;654;-75
2023/04/26 04:07:31;;;;;;;;;;;;;;;14.58;63.89;101586.03;1260281;23;614;-75
2023/04/26 04:08:22;;;;;;;;;;;;;;;14.59;64.04;101587.75;1260283;23;677;-74
2023/04/26 04:09:13;;;;;;;;;;;;;;;14.58;63.99;101581.53;1260469;23;677;-74
2023/04/26 04:10:03;;;;;;;;;;;;;;;14.63;63.49;101578.53;1260382;23;895;-74
2023/04/26 04:10:53;;;;;;;;;;;;;;;14.63;63.57;101583.91;1260389;23;617;-75
2023/04/26 04:11:44;;;;;;;;;;;;;;;14.60;63.98;101573.38;1260471;23;665;-74
2023/04/26 04:12:35;;;;;;;;;;;;;;;14.63;64.16;101581.22;1260465;23;736;-74
2023/04/26 04:13:25;;;;;;;;;;;;;;;14.68;64.46;101579.06;1260425;23;729;-74
2023/04/26 04:14:16;;;;;;;;;;;;;;;14.73;64.93;101579.59;1260353;23;642;-74
2023/04/26 04:15:07;;;;;;;;;;;;;;;14.77;64.68;101578.41;1260336;23;665;-73
2023/04/26 04:15:57;;;;;;;;;;;;;;;14.76;64.69;101578.50;1260425;23;666;-75
2023/04/26 04:16:47;;;;;;;;;;;;;;;14.82;64.22;101576.28;1260316;23;706;-75
2023/04/26 04:17:38;;;;;;;;;;;;;;;14.78;64.46;101576.59;1258673;23;662;-74
2023/04/26 04:18:28;;;;;;;;;;;;;;;14.79;63.66;101575.63;1259806;23;677;-74
2023/04/26 04:19:19;;;;;;;;;;;;;;;14.77;63.84;101575.72;1259631;23;672;-74
2023/04/26 04:20:09;;;;;;;;;;;;;;;14.76;63.19;101576.69;1259741;23;704;-74
2023/04/26 04:21:00;;;;;;;;;;;;;;;14.76;63.13;101581.19;1259708;23;678;-74
2023/04/26 04:21:50;;;;;;;;;;;;;;;14.74;63.11;101580.44;1261267;23;710;-74
2023/04/26 04:22:41;;;;;;;;;;;;;;;14.71;63.27;101567.25;1259764;23;670;-74
2023/04/26 04:23:31;;;;;;;;;;;;;;;14.70;63.13;101577.13;1259675;23;636;-74
2023/04/26 04:24:22;;;;;;;;;;;;;;;14.70;62.93;101573.56;1259630;23;623;-75
2023/04/26 04:25:13;;;;;;;;;;;;;;;14.69;62.75;101577.25;1259701;23;797;-74
2023/04/26 04:26:03;;;;;;;;;;;;;;;14.66;62.26;101583.69;1259738;23;622;-74
2023/04/26 04:26:54;;;;;;;;;;;;;;;14.66;61.95;101578.31;1259714;23;666;-74